sensor_id;sensor_type;location;lat;lon;timestamp;temperature;humidity
19728;DHT22;10015;52.530;13.390;2023-06-14T00:00:59;18.10;99.90
19728;DHT22;10015;52.530;13.390;2023-06-14T00:03:24;18.10;99.90
19728;DHT22;10015;52.530;13.390;2023-06-14T00:05:51;18.10;99.90
19728;DHT22;10015;52.530;13.390;2023-06-14T00:08:17;18.10;99.90
19728;DHT22;10015;52.530;13.390;2023-06-14T00:10:44;18.10;99.90
19728;DHT22;10015;52.530;13.390;2023-06-14T00:13:11;18.10;99.90
19728;DHT22;10015;52.530;13.390;2023-06-14T00:15:37;18.10;99.90
19728;DHT22;10015;52.530;13.390;2023-06-14T00:18:03;18.10;99.90
19728;DHT22;10015;52.530;13.390;2023-06-14T00:20:32;18.10;99.90
19728;DHT22;10015;52.530;13.390;2023-06-14T00:22:59;18.00;99.90
19728;DHT22;10015;52.530;13.390;2023-06-14T00:25:25;18.00;99.90
19728;DHT22;10015;52.530;13.390;2023-06-14T00:27:52;18.00;99.90
19728;DHT22;10015;52.530;13.390;2023-06-14T00:30:18;18.00;99.90
19728;DHT22;10015;52.530;13.390;2023-06-14T00:32:45;18.00;99.90
19728;DHT22;10015;52.530;13.390;2023-06-14T00:35:11;18.00;99.90
19728;DHT22;10015;52.530;13.390;2023-06-14T00:37:37;17.90;99.90
19728;DHT22;10015;52.530;13.390;2023-06-14T00:40:04;17.90;99.90
19728;DHT22;10015;52.530;13.390;2023-06-14T00:42:30;17.90;99.90
19728;DHT22;10015;52.530;13.390;2023-06-14T00:44:56;17.90;99.90
19728;DHT22;10015;52.530;13.390;2023-06-14T00:47:23;17.90;99.90
19728;DHT22;10015;52.530;13.390;2023-06-14T00:49:50;17.90;99.90
19728;DHT22;10015;52.530;13.390;2023-06-14T00:52:17;17.90;99.90
19728;DHT22;10015;52.530;13.390;2023-06-14T00:54:44;17.80;99.90
19728;DHT22;10015;52.530;13.390;2023-06-14T00:57:10;17.70;99.90
19728;DHT22;10015;52.530;13.390;2023-06-14T00:59:47;17.60;99.90
19728;DHT22;10015;52.530;13.390;2023-06-14T01:02:14;17.60;99.90
19728;DHT22;10015;52.530;13.390;2023-06-14T01:04:41;17.60;99.90
19728;DHT22;10015;52.530;13.390;2023-06-14T01:07:33;17.60;99.90
19728;DHT22;10015;52.530;13.390;2023-06-14T01:15:36;17.50;99.90
19728;DHT22;10015;52.530;13.390;2023-06-14T01:18:05;17.60;99.90
19728;DHT22;10015;52.530;13.390;2023-06-14T01:20:32;17.50;99.90
19728;DHT22;10015;52.530;13.390;2023-06-14T01:22:59;17.50;99.90
19728;DHT22;10015;52.530;13.390;2023-06-14T01:25:25;17.60;99.90
19728;DHT22;10015;52.530;13.390;2023-06-14T01:28:04;17.60;99.90
19728;DHT22;10015;52.530;13.390;2023-06-14T01:30:37;17.70;99.90
19728;DHT22;10015;52.530;13.390;2023-06-14T01:33:04;17.70;99.90
19728;DHT22;10015;52.530;13.390;2023-06-14T01:35:31;17.70;99.90
19728;DHT22;10015;52.530;13.390;2023-06-14T01:37:57;17.70;99.90
19728;DHT22;10015;52.530;13.390;2023-06-14T01:40:25;17.70;99.90
19728;DHT22;10015;52.530;13.390;2023-06-14T01:42:53;17.70;99.90
19728;DHT22;10015;52.530;13.390;2023-06-14T01:45:20;17.70;99.90
19728;DHT22;10015;52.530;13.390;2023-06-14T01:47:48;17.70;99.90
19728;DHT22;10015;52.530;13.390;2023-06-14T01:50:15;17.60;99.90
19728;DHT22;10015;52.530;13.390;2023-06-14T01:52:41;17.60;99.90
19728;DHT22;10015;52.530;13.390;2023-06-14T01:55:09;17.60;99.90
19728;DHT22;10015;52.530;13.390;2023-06-14T01:57:35;17.60;99.90
19728;DHT22;10015;52.530;13.390;2023-06-14T02:00:02;17.60;99.90
19728;DHT22;10015;52.530;13.390;2023-06-14T02:02:39;17.60;99.90
19728;DHT22;10015;52.530;13.390;2023-06-14T02:05:05;17.60;99.90
19728;DHT22;10015;52.530;13.390;2023-06-14T02:07:31;17.60;99.90
19728;DHT22;10015;52.530;13.390;2023-06-14T02:09:57;17.50;99.90
19728;DHT22;10015;52.530;13.390;2023-06-14T02:12:23;17.40;99.90
19728;DHT22;10015;52.530;13.390;2023-06-14T02:14:49;17.40;99.90
19728;DHT22;10015;52.530;13.390;2023-06-14T02:17:16;17.30;99.90
19728;DHT22;10015;52.530;13.390;2023-06-14T02:19:43;17.30;99.90
19728;DHT22;10015;52.530;13.390;2023-06-14T02:22:09;17.30;99.90
19728;DHT22;10015;52.530;13.390;2023-06-14T02:24:35;17.40;99.90
19728;DHT22;10015;52.530;13.390;2023-06-14T02:27:01;17.30;99.90
19728;DHT22;10015;52.530;13.390;2023-06-14T02:29:27;17.30;99.90
19728;DHT22;10015;52.530;13.390;2023-06-14T02:31:54;17.30;99.90
19728;DHT22;10015;52.530;13.390;2023-06-14T02:34:20;17.20;99.90
19728;DHT22;10015;52.530;13.390;2023-06-14T02:36:47;17.20;99.90
19728;DHT22;10015;52.530;13.390;2023-06-14T02:39:13;17.10;99.90
19728;DHT22;10015;52.530;13.390;2023-06-14T02:41:39;17.10;99.90
19728;DHT22;10015;52.530;13.390;2023-06-14T02:44:06;17.00;99.90
19728;DHT22;10015;52.530;13.390;2023-06-14T02:46:32;17.10;99.90
19728;DHT22;10015;52.530;13.390;2023-06-14T02:48:59;17.10;99.90
19728;DHT22;10015;52.530;13.390;2023-06-14T02:51:25;17.10;99.90
19728;DHT22;10015;52.530;13.390;2023-06-14T02:53:51;17.10;99.90
19728;DHT22;10015;52.530;13.390;2023-06-14T02:56:17;17.10;99.90
19728;DHT22;10015;52.530;13.390;2023-06-14T02:58:46;17.20;99.90
19728;DHT22;10015;52.530;13.390;2023-06-14T03:01:14;17.20;99.90
19728;DHT22;10015;52.530;13.390;2023-06-14T03:03:41;17.20;99.90
19728;DHT22;10015;52.530;13.390;2023-06-14T03:06:07;17.20;99.90
19728;DHT22;10015;52.530;13.390;2023-06-14T03:08:35;17.20;99.90
19728;DHT22;10015;52.530;13.390;2023-06-14T03:11:08;17.20;99.90
19728;DHT22;10015;52.530;13.390;2023-06-14T03:13:35;17.20;99.90
19728;DHT22;10015;52.530;13.390;2023-06-14T03:16:04;17.20;99.90
19728;DHT22;10015;52.530;13.390;2023-06-14T03:18:33;17.20;99.90
19728;DHT22;10015;52.530;13.390;2023-06-14T03:21:02;17.20;99.90
19728;DHT22;10015;52.530;13.390;2023-06-14T03:23:29;17.20;99.90
19728;DHT22;10015;52.530;13.390;2023-06-14T03:25:55;17.20;99.90
19728;DHT22;10015;52.530;13.390;2023-06-14T03:28:21;17.20;99.90
19728;DHT22;10015;52.530;13.390;2023-06-14T03:30:48;17.20;99.90
19728;DHT22;10015;52.530;13.390;2023-06-14T03:33:14;17.20;99.90
19728;DHT22;10015;52.530;13.390;2023-06-14T03:35:41;17.10;99.90
19728;DHT22;10015;52.530;13.390;2023-06-14T03:38:08;17.10;99.90
19728;DHT22;10015;52.530;13.390;2023-06-14T03:40:35;17.10;99.90
19728;DHT22;10015;52.530;13.390;2023-06-14T03:43:03;17.10;99.90
19728;DHT22;10015;52.530;13.390;2023-06-14T03:45:31;17.10;99.90
19728;DHT22;10015;52.530;13.390;2023-06-14T03:47:59;17.10;99.90
19728;DHT22;10015;52.530;13.390;2023-06-14T03:50:27;17.10;99.90
19728;DHT22;10015;52.530;13.390;2023-06-14T03:52:55;17.10;99.90
19728;DHT22;10015;52.530;13.390;2023-06-14T03:55:22;17.10;99.90
19728;DHT22;10015;52.530;13.390;2023-06-14T03:57:51;17.10;99.90
19728;DHT22;10015;52.530;13.390;2023-06-14T04:00:18;17.00;99.90
19728;DHT22;10015;52.530;13.390;2023-06-14T04:02:44;17.10;99.90
19728;DHT22;10015;52.530;13.390;2023-06-14T04:05:10;17.10;99.90
19728;DHT22;10015;52.530;13.390;2023-06-14T04:07:40;17.10;99.90
19728;DHT22;10015;52.530;13.390;2023-06-14T04:10:14;17.20;99.90
19728;DHT22;10015;52.530;13.390;2023-06-14T04:12:40;17.20;99.90
19728;DHT22;10015;52.530;13.390;2023-06-14T04:15:07;17.20;99.90
19728;DHT22;10015;52.530;13.390;2023-06-14T04:17:35;17.20;99.90
19728;DHT22;10015;52.530;13.390;2023-06-14T04:20:02;17.30;99.90
19728;DHT22;10015;52.530;13.390;2023-06-14T04:22:31;17.30;99.90
19728;DHT22;10015;52.530;13.390;2023-06-14T04:24:58;17.30;99.90
19728;DHT22;10015;52.530;13.390;2023-06-14T04:27:28;17.40;99.90
19728;DHT22;10015;52.530;13.390;2023-06-14T04:29:58;17.40;99.90
19728;DHT22;10015;52.530;13.390;2023-06-14T04:32:32;17.50;99.90
19728;DHT22;10015;52.530;13.390;2023-06-14T04:35:07;17.60;99.90
19728;DHT22;10015;52.530;13.390;2023-06-14T04:37:35;17.60;99.90
19728;DHT22;10015;52.530;13.390;2023-06-14T04:40:06;17.60;99.90
19728;DHT22;10015;52.530;13.390;2023-06-14T04:42:33;17.60;99.90
19728;DHT22;10015;52.530;13.390;2023-06-14T04:45:03;17.50;99.90
19728;DHT22;10015;52.530;13.390;2023-06-14T04:47:29;17.70;99.90
19728;DHT22;10015;52.530;13.390;2023-06-14T04:49:57;17.80;99.90
19728;DHT22;10015;52.530;13.390;2023-06-14T04:52:24;17.90;99.90
19728;DHT22;10015;52.530;13.390;2023-06-14T04:54:53;17.90;99.90
19728;DHT22;10015;52.530;13.390;2023-06-14T04:57:21;18.00;99.90
19728;DHT22;10015;52.530;13.390;2023-06-14T04:59:49;18.00;99.90
19728;DHT22;10015;52.530;13.390;2023-06-14T05:02:24;18.00;99.90
19728;DHT22;10015;52.530;13.390;2023-06-14T05:04:53;17.90;99.90
19728;DHT22;10015;52.530;13.390;2023-06-14T05:07:19;18.00;99.90
19728;DHT22;10015;52.530;13.390;2023-06-14T05:09:46;18.10;99.90
19728;DHT22;10015;52.530;13.390;2023-06-14T05:12:12;18.20;99.90
19728;DHT22;10015;52.530;13.390;2023-06-14T05:14:38;18.20;99.90
19728;DHT22;10015;52.530;13.390;2023-06-14T05:17:06;18.30;99.90
19728;DHT22;10015;52.530;13.390;2023-06-14T05:19:31;18.40;99.90
19728;DHT22;10015;52.530;13.390;2023-06-14T05:21:57;18.50;99.90
19728;DHT22;10015;52.530;13.390;2023-06-14T05:24:23;18.50;99.90
19728;DHT22;10015;52.530;13.390;2023-06-14T05:26:49;18.40;99.90
19728;DHT22;10015;52.530;13.390;2023-06-14T05:29:15;18.40;99.90
19728;DHT22;10015;52.530;13.390;2023-06-14T05:31:41;18.30;99.90
19728;DHT22;10015;52.530;13.390;2023-06-14T05:34:07;18.30;99.90
19728;DHT22;10015;52.530;13.390;2023-06-14T05:36:33;18.20;99.90
19728;DHT22;10015;52.530;13.390;2023-06-14T05:38:59;18.20;99.90
19728;DHT22;10015;52.530;13.390;2023-06-14T05:41:29;18.10;99.90
19728;DHT22;10015;52.530;13.390;2023-06-14T05:43:55;18.10;99.90
19728;DHT22;10015;52.530;13.390;2023-06-14T05:46:22;18.10;99.90
19728;DHT22;10015;52.530;13.390;2023-06-14T05:48:51;18.20;99.90
19728;DHT22;10015;52.530;13.390;2023-06-14T05:51:17;18.10;99.90
19728;DHT22;10015;52.530;13.390;2023-06-14T05:53:47;18.10;99.90
19728;DHT22;10015;52.530;13.390;2023-06-14T05:56:14;18.20;99.90
19728;DHT22;10015;52.530;13.390;2023-06-14T05:58:40;18.20;99.90
19728;DHT22;10015;52.530;13.390;2023-06-14T06:01:06;18.10;99.90
19728;DHT22;10015;52.530;13.390;2023-06-14T06:03:32;18.20;99.90
19728;DHT22;10015;52.530;13.390;2023-06-14T06:05:58;18.20;99.90
19728;DHT22;10015;52.530;13.390;2023-06-14T06:08:24;18.20;99.90
19728;DHT22;10015;52.530;13.390;2023-06-14T06:10:50;18.20;99.90
19728;DHT22;10015;52.530;13.390;2023-06-14T06:13:16;18.20;99.90
19728;DHT22;10015;52.530;13.390;2023-06-14T06:15:42;18.20;99.90
19728;DHT22;10015;52.530;13.390;2023-06-14T06:18:08;18.20;99.90
19728;DHT22;10015;52.530;13.390;2023-06-14T06:20:33;18.20;99.90
19728;DHT22;10015;52.530;13.390;2023-06-14T06:23:00;18.20;99.90
19728;DHT22;10015;52.530;13.390;2023-06-14T06:25:26;18.00;99.90
19728;DHT22;10015;52.530;13.390;2023-06-14T06:27:56;18.00;99.90
19728;DHT22;10015;52.530;13.390;2023-06-14T06:30:22;18.00;99.90
19728;DHT22;10015;52.530;13.390;2023-06-14T06:32:48;18.00;99.90
19728;DHT22;10015;52.530;13.390;2023-06-14T06:35:14;18.00;99.90
19728;DHT22;10015;52.530;13.390;2023-06-14T06:37:41;17.90;99.90
19728;DHT22;10015;52.530;13.390;2023-06-14T06:40:08;17.80;99.90
19728;DHT22;10015;52.530;13.390;2023-06-14T06:42:35;17.90;99.90
19728;DHT22;10015;52.530;13.390;2023-06-14T06:45:04;17.90;99.90
19728;DHT22;10015;52.530;13.390;2023-06-14T06:47:31;18.00;99.90
19728;DHT22;10015;52.530;13.390;2023-06-14T06:49:57;18.00;99.90
19728;DHT22;10015;52.530;13.390;2023-06-14T06:52:23;18.10;99.90
19728;DHT22;10015;52.530;13.390;2023-06-14T06:54:49;18.10;99.90
19728;DHT22;10015;52.530;13.390;2023-06-14T06:57:16;18.20;99.90
19728;DHT22;10015;52.530;13.390;2023-06-14T06:59:42;18.30;99.90
19728;DHT22;10015;52.530;13.390;2023-06-14T07:02:08;18.40;99.90
19728;DHT22;10015;52.530;13.390;2023-06-14T07:04:33;18.50;99.90
19728;DHT22;10015;52.530;13.390;2023-06-14T07:06:59;18.60;99.90
19728;DHT22;10015;52.530;13.390;2023-06-14T07:09:26;18.60;99.90
19728;DHT22;10015;52.530;13.390;2023-06-14T07:11:52;18.50;99.90
19728;DHT22;10015;52.530;13.390;2023-06-14T07:14:17;18.60;99.90
19728;DHT22;10015;52.530;13.390;2023-06-14T07:16:43;18.50;99.90
19728;DHT22;10015;52.530;13.390;2023-06-14T07:19:10;18.50;99.90
19728;DHT22;10015;52.530;13.390;2023-06-14T07:21:36;18.50;99.90
19728;DHT22;10015;52.530;13.390;2023-06-14T07:24:08;18.50;99.90
19728;DHT22;10015;52.530;13.390;2023-06-14T07:26:34;18.50;99.90
19728;DHT22;10015;52.530;13.390;2023-06-14T07:29:01;18.50;99.90
19728;DHT22;10015;52.530;13.390;2023-06-14T07:31:27;18.60;99.90
19728;DHT22;10015;52.530;13.390;2023-06-14T07:33:53;18.70;99.90
19728;DHT22;10015;52.530;13.390;2023-06-14T07:36:19;18.90;99.90
19728;DHT22;10015;52.530;13.390;2023-06-14T07:38:45;19.10;99.90
19728;DHT22;10015;52.530;13.390;2023-06-14T07:41:11;19.30;99.90
19728;DHT22;10015;52.530;13.390;2023-06-14T07:43:37;19.50;99.90
19728;DHT22;10015;52.530;13.390;2023-06-14T07:46:04;19.60;99.90
19728;DHT22;10015;52.530;13.390;2023-06-14T07:48:30;19.80;99.90
19728;DHT22;10015;52.530;13.390;2023-06-14T07:50:56;20.00;99.90
19728;DHT22;10015;52.530;13.390;2023-06-14T07:53:22;20.10;99.90
19728;DHT22;10015;52.530;13.390;2023-06-14T07:55:48;20.10;99.90
19728;DHT22;10015;52.530;13.390;2023-06-14T07:58:14;20.30;99.90
19728;DHT22;10015;52.530;13.390;2023-06-14T08:00:40;20.50;99.90
19728;DHT22;10015;52.530;13.390;2023-06-14T08:03:06;20.50;99.90
19728;DHT22;10015;52.530;13.390;2023-06-14T08:05:33;20.70;99.90
19728;DHT22;10015;52.530;13.390;2023-06-14T08:08:00;21.00;99.90
19728;DHT22;10015;52.530;13.390;2023-06-14T08:10:26;21.20;99.90
19728;DHT22;10015;52.530;13.390;2023-06-14T08:12:52;21.40;99.90
19728;DHT22;10015;52.530;13.390;2023-06-14T08:15:18;21.40;99.90
19728;DHT22;10015;52.530;13.390;2023-06-14T08:17:44;21.40;99.90
19728;DHT22;10015;52.530;13.390;2023-06-14T08:20:11;21.40;99.90
19728;DHT22;10015;52.530;13.390;2023-06-14T08:22:38;21.30;99.90
19728;DHT22;10015;52.530;13.390;2023-06-14T08:25:05;21.20;99.90
19728;DHT22;10015;52.530;13.390;2023-06-14T08:27:32;21.20;99.90
19728;DHT22;10015;52.530;13.390;2023-06-14T08:29:58;21.10;99.90
19728;DHT22;10015;52.530;13.390;2023-06-14T08:32:24;21.10;99.90
19728;DHT22;10015;52.530;13.390;2023-06-14T08:34:51;21.20;99.90
19728;DHT22;10015;52.530;13.390;2023-06-14T08:37:17;21.40;99.90
19728;DHT22;10015;52.530;13.390;2023-06-14T08:39:43;21.60;99.90
19728;DHT22;10015;52.530;13.390;2023-06-14T08:42:09;21.80;99.90
19728;DHT22;10015;52.530;13.390;2023-06-14T08:44:36;22.00;99.90
19728;DHT22;10015;52.530;13.390;2023-06-14T08:47:02;22.00;99.90
19728;DHT22;10015;52.530;13.390;2023-06-14T08:49:32;22.00;99.90
19728;DHT22;10015;52.530;13.390;2023-06-14T08:52:00;22.10;99.90
19728;DHT22;10015;52.530;13.390;2023-06-14T08:54:29;22.00;99.90
19728;DHT22;10015;52.530;13.390;2023-06-14T08:56:57;21.80;99.90
19728;DHT22;10015;52.530;13.390;2023-06-14T08:59:26;21.70;99.90
19728;DHT22;10015;52.530;13.390;2023-06-14T09:01:53;21.60;99.90
19728;DHT22;10015;52.530;13.390;2023-06-14T09:04:23;21.60;99.90
19728;DHT22;10015;52.530;13.390;2023-06-14T09:06:56;21.60;99.90
19728;DHT22;10015;52.530;13.390;2023-06-14T09:09:22;21.60;99.90
19728;DHT22;10015;52.530;13.390;2023-06-14T09:11:50;21.60;99.90
19728;DHT22;10015;52.530;13.390;2023-06-14T09:14:18;21.70;99.90
19728;DHT22;10015;52.530;13.390;2023-06-14T09:16:44;21.80;99.90
19728;DHT22;10015;52.530;13.390;2023-06-14T09:19:21;21.90;99.90
19728;DHT22;10015;52.530;13.390;2023-06-14T09:21:48;22.00;99.90
19728;DHT22;10015;52.530;13.390;2023-06-14T09:24:14;21.90;99.90
19728;DHT22;10015;52.530;13.390;2023-06-14T09:26:40;21.90;99.90
19728;DHT22;10015;52.530;13.390;2023-06-14T09:29:06;21.90;99.90
19728;DHT22;10015;52.530;13.390;2023-06-14T09:31:32;21.90;99.90
19728;DHT22;10015;52.530;13.390;2023-06-14T09:34:02;21.80;99.90
19728;DHT22;10015;52.530;13.390;2023-06-14T09:36:31;21.80;99.90
19728;DHT22;10015;52.530;13.390;2023-06-14T09:38:59;21.90;99.90
19728;DHT22;10015;52.530;13.390;2023-06-14T09:41:39;21.90;99.90
19728;DHT22;10015;52.530;13.390;2023-06-14T09:44:07;22.00;99.90
19728;DHT22;10015;52.530;13.390;2023-06-14T09:46:34;22.10;99.90
19728;DHT22;10015;52.530;13.390;2023-06-14T09:49:01;22.30;99.90
19728;DHT22;10015;52.530;13.390;2023-06-14T09:51:28;22.40;99.90
19728;DHT22;10015;52.530;13.390;2023-06-14T09:54:00;22.50;99.90
19728;DHT22;10015;52.530;13.390;2023-06-14T09:56:36;22.50;99.90
19728;DHT22;10015;52.530;13.390;2023-06-14T09:59:05;22.50;99.90
19728;DHT22;10015;52.530;13.390;2023-06-14T10:01:32;22.50;99.90
19728;DHT22;10015;52.530;13.390;2023-06-14T10:04:04;22.40;99.90
19728;DHT22;10015;52.530;13.390;2023-06-14T10:06:32;22.40;99.90
19728;DHT22;10015;52.530;13.390;2023-06-14T10:08:59;22.40;99.90
19728;DHT22;10015;52.530;13.390;2023-06-14T10:11:26;22.40;99.90
19728;DHT22;10015;52.530;13.390;2023-06-14T10:13:55;22.30;99.90
19728;DHT22;10015;52.530;13.390;2023-06-14T10:19:07;22.30;99.90
19728;DHT22;10015;52.530;13.390;2023-06-14T10:21:58;22.20;99.90
19728;DHT22;10015;52.530;13.390;2023-06-14T10:24:32;22.10;99.90
19728;DHT22;10015;52.530;13.390;2023-06-14T10:26:59;22.00;99.90
19728;DHT22;10015;52.530;13.390;2023-06-14T10:29:27;22.00;99.90
19728;DHT22;10015;52.530;13.390;2023-06-14T10:32:00;21.90;99.90
19728;DHT22;10015;52.530;13.390;2023-06-14T10:34:30;21.80;99.90
19728;DHT22;10015;52.530;13.390;2023-06-14T10:37:16;21.80;99.90
19728;DHT22;10015;52.530;13.390;2023-06-14T10:39:43;21.90;99.90
19728;DHT22;10015;52.530;13.390;2023-06-14T10:42:12;22.00;99.90
19728;DHT22;10015;52.530;13.390;2023-06-14T10:44:40;22.10;99.90
19728;DHT22;10015;52.530;13.390;2023-06-14T10:47:09;22.00;99.90
19728;DHT22;10015;52.530;13.390;2023-06-14T10:49:37;22.00;99.90
19728;DHT22;10015;52.530;13.390;2023-06-14T10:52:09;21.90;99.90
19728;DHT22;10015;52.530;13.390;2023-06-14T10:54:37;22.00;99.90
19728;DHT22;10015;52.530;13.390;2023-06-14T10:57:06;22.00;99.90
19728;DHT22;10015;52.530;13.390;2023-06-14T10:59:36;22.10;99.90
19728;DHT22;10015;52.530;13.390;2023-06-14T11:04:53;22.10;99.90
19728;DHT22;10015;52.530;13.390;2023-06-14T11:10:37;22.30;99.90
19728;DHT22;10015;52.530;13.390;2023-06-14T11:13:04;22.40;99.90
19728;DHT22;10015;52.530;13.390;2023-06-14T11:15:31;22.40;99.90
19728;DHT22;10015;52.530;13.390;2023-06-14T11:17:57;22.50;99.90
19728;DHT22;10015;52.530;13.390;2023-06-14T11:20:27;22.60;99.90
19728;DHT22;10015;52.530;13.390;2023-06-14T11:22:53;22.70;99.90
19728;DHT22;10015;52.530;13.390;2023-06-14T11:25:19;22.80;99.90
19728;DHT22;10015;52.530;13.390;2023-06-14T11:27:46;22.90;99.90
19728;DHT22;10015;52.530;13.390;2023-06-14T11:30:13;23.00;99.90
19728;DHT22;10015;52.530;13.390;2023-06-14T11:32:39;23.10;99.90
19728;DHT22;10015;52.530;13.390;2023-06-14T11:35:07;23.20;99.90
19728;DHT22;10015;52.530;13.390;2023-06-14T11:37:33;23.30;99.90
19728;DHT22;10015;52.530;13.390;2023-06-14T11:40:00;23.20;99.90
19728;DHT22;10015;52.530;13.390;2023-06-14T11:42:27;23.20;99.90
19728;DHT22;10015;52.530;13.390;2023-06-14T11:44:56;23.30;99.90
19728;DHT22;10015;52.530;13.390;2023-06-14T11:47:22;23.30;99.90
19728;DHT22;10015;52.530;13.390;2023-06-14T11:49:48;23.40;99.90
19728;DHT22;10015;52.530;13.390;2023-06-14T11:52:14;23.50;99.90
19728;DHT22;10015;52.530;13.390;2023-06-14T11:54:40;23.30;99.90
19728;DHT22;10015;52.530;13.390;2023-06-14T11:57:07;23.20;99.90
19728;DHT22;10015;52.530;13.390;2023-06-14T11:59:44;23.30;99.90
19728;DHT22;10015;52.530;13.390;2023-06-14T12:02:14;23.30;99.90
19728;DHT22;10015;52.530;13.390;2023-06-14T12:04:46;23.30;99.90
19728;DHT22;10015;52.530;13.390;2023-06-14T12:07:16;23.20;99.90
19728;DHT22;10015;52.530;13.390;2023-06-14T12:12:25;23.50;99.90
19728;DHT22;10015;52.530;13.390;2023-06-14T12:14:51;23.70;99.90
19728;DHT22;10015;52.530;13.390;2023-06-14T12:17:18;23.80;99.90
19728;DHT22;10015;52.530;13.390;2023-06-14T12:19:46;23.80;99.50
19728;DHT22;10015;52.530;13.390;2023-06-14T12:22:13;23.90;98.50
19728;DHT22;10015;52.530;13.390;2023-06-14T12:24:42;24.00;98.10
19728;DHT22;10015;52.530;13.390;2023-06-14T12:27:08;24.10;97.90
19728;DHT22;10015;52.530;13.390;2023-06-14T12:29:34;24.20;98.00
19728;DHT22;10015;52.530;13.390;2023-06-14T12:32:01;24.20;97.10
19728;DHT22;10015;52.530;13.390;2023-06-14T12:34:27;24.20;96.50
19728;DHT22;10015;52.530;13.390;2023-06-14T12:36:53;24.20;95.80
19728;DHT22;10015;52.530;13.390;2023-06-14T12:39:20;24.30;95.90
19728;DHT22;10015;52.530;13.390;2023-06-14T12:41:46;24.30;96.00
19728;DHT22;10015;52.530;13.390;2023-06-14T12:44:13;24.30;96.30
19728;DHT22;10015;52.530;13.390;2023-06-14T12:46:40;24.30;96.00
19728;DHT22;10015;52.530;13.390;2023-06-14T12:49:10;24.30;95.90
19728;DHT22;10015;52.530;13.390;2023-06-14T12:51:40;24.30;96.00
19728;DHT22;10015;52.530;13.390;2023-06-14T12:54:06;24.40;95.80
19728;DHT22;10015;52.530;13.390;2023-06-14T12:56:32;24.40;95.60
19728;DHT22;10015;52.530;13.390;2023-06-14T12:58:58;24.30;95.50
19728;DHT22;10015;52.530;13.390;2023-06-14T13:01:24;24.30;95.40
19728;DHT22;10015;52.530;13.390;2023-06-14T13:03:50;24.30;95.60
19728;DHT22;10015;52.530;13.390;2023-06-14T13:06:22;24.30;95.60
19728;DHT22;10015;52.530;13.390;2023-06-14T13:08:49;24.20;95.20
19728;DHT22;10015;52.530;13.390;2023-06-14T13:11:16;24.30;94.60
19728;DHT22;10015;52.530;13.390;2023-06-14T13:13:42;24.30;94.40
19728;DHT22;10015;52.530;13.390;2023-06-14T13:16:08;24.20;94.80
19728;DHT22;10015;52.530;13.390;2023-06-14T13:18:34;24.30;94.80
19728;DHT22;10015;52.530;13.390;2023-06-14T13:21:00;24.20;94.70
19728;DHT22;10015;52.530;13.390;2023-06-14T13:23:26;24.30;94.60
19728;DHT22;10015;52.530;13.390;2023-06-14T13:25:52;24.30;94.50
19728;DHT22;10015;52.530;13.390;2023-06-14T13:28:18;24.20;94.70
19728;DHT22;10015;52.530;13.390;2023-06-14T13:30:46;24.10;94.20
19728;DHT22;10015;52.530;13.390;2023-06-14T13:33:13;24.20;94.40
19728;DHT22;10015;52.530;13.390;2023-06-14T13:35:39;24.30;94.10
19728;DHT22;10015;52.530;13.390;2023-06-14T13:38:05;24.50;93.90
19728;DHT22;10015;52.530;13.390;2023-06-14T13:40:31;24.50;93.50
19728;DHT22;10015;52.530;13.390;2023-06-14T13:42:57;24.70;93.50
19728;DHT22;10015;52.530;13.390;2023-06-14T13:45:22;24.80;93.50
19728;DHT22;10015;52.530;13.390;2023-06-14T13:47:48;24.80;93.30
19728;DHT22;10015;52.530;13.390;2023-06-14T13:50:15;24.70;93.30
19728;DHT22;10015;52.530;13.390;2023-06-14T13:52:42;24.60;93.20
19728;DHT22;10015;52.530;13.390;2023-06-14T13:55:08;24.70;93.40
19728;DHT22;10015;52.530;13.390;2023-06-14T13:57:35;24.70;93.50
19728;DHT22;10015;52.530;13.390;2023-06-14T14:00:01;24.60;93.40
19728;DHT22;10015;52.530;13.390;2023-06-14T14:02:38;24.70;92.90
19728;DHT22;10015;52.530;13.390;2023-06-14T14:05:05;24.70;93.30
19728;DHT22;10015;52.530;13.390;2023-06-14T14:07:32;24.90;93.00
19728;DHT22;10015;52.530;13.390;2023-06-14T14:09:58;25.00;92.60
19728;DHT22;10015;52.530;13.390;2023-06-14T14:12:24;25.00;92.20
19728;DHT22;10015;52.530;13.390;2023-06-14T14:14:51;25.00;92.10
19728;DHT22;10015;52.530;13.390;2023-06-14T14:17:17;25.00;91.60
19728;DHT22;10015;52.530;13.390;2023-06-14T14:19:43;25.00;91.80
19728;DHT22;10015;52.530;13.390;2023-06-14T14:22:09;25.00;91.70
19728;DHT22;10015;52.530;13.390;2023-06-14T14:24:35;25.00;91.70
19728;DHT22;10015;52.530;13.390;2023-06-14T14:27:01;24.90;91.10
19728;DHT22;10015;52.530;13.390;2023-06-14T14:29:27;24.80;91.10
19728;DHT22;10015;52.530;13.390;2023-06-14T14:31:56;24.80;91.50
19728;DHT22;10015;52.530;13.390;2023-06-14T14:34:24;24.70;92.30
19728;DHT22;10015;52.530;13.390;2023-06-14T14:36:50;24.70;93.20
19728;DHT22;10015;52.530;13.390;2023-06-14T14:39:16;24.50;93.80
19728;DHT22;10015;52.530;13.390;2023-06-14T14:41:42;24.50;94.30
19728;DHT22;10015;52.530;13.390;2023-06-14T14:44:08;24.30;93.80
19728;DHT22;10015;52.530;13.390;2023-06-14T14:46:34;24.20;94.10
19728;DHT22;10015;52.530;13.390;2023-06-14T14:49:01;24.10;94.40
19728;DHT22;10015;52.530;13.390;2023-06-14T14:51:27;24.00;94.30
19728;DHT22;10015;52.530;13.390;2023-06-14T14:53:53;23.90;94.40
19728;DHT22;10015;52.530;13.390;2023-06-14T14:56:19;23.80;94.50
19728;DHT22;10015;52.530;13.390;2023-06-14T14:58:45;23.60;94.60
19728;DHT22;10015;52.530;13.390;2023-06-14T15:01:11;23.60;94.80
19728;DHT22;10015;52.530;13.390;2023-06-14T15:03:37;23.60;94.90
19728;DHT22;10015;52.530;13.390;2023-06-14T15:06:03;23.60;94.90
19728;DHT22;10015;52.530;13.390;2023-06-14T15:08:31;23.50;95.10
19728;DHT22;10015;52.530;13.390;2023-06-14T15:10:57;23.40;95.10
19728;DHT22;10015;52.530;13.390;2023-06-14T15:13:23;23.40;95.20
19728;DHT22;10015;52.530;13.390;2023-06-14T15:15:49;23.30;95.20
19728;DHT22;10015;52.530;13.390;2023-06-14T15:18:17;23.30;95.20
19728;DHT22;10015;52.530;13.390;2023-06-14T15:20:46;23.20;95.20
19728;DHT22;10015;52.530;13.390;2023-06-14T15:23:12;23.20;95.30
19728;DHT22;10015;52.530;13.390;2023-06-14T15:25:45;23.30;95.20
19728;DHT22;10015;52.530;13.390;2023-06-14T15:28:12;23.20;95.30
19728;DHT22;10015;52.530;13.390;2023-06-14T15:30:38;23.20;95.40
19728;DHT22;10015;52.530;13.390;2023-06-14T15:33:04;23.20;95.30